createdAt,value
2018-03-04T00:01:36.641Z,61.70
2018-03-04T00:04:39.898Z,67.30
2018-03-04T00:07:43.173Z,65.40
2018-03-04T00:10:46.451Z,73.07
2018-03-04T00:13:49.729Z,73.33
2018-03-04T00:16:53.027Z,61.27
2018-03-04T00:19:57.053Z,69.73
2018-03-04T00:23:00.316Z,74.57
2018-03-04T00:26:04.348Z,62.57
2018-03-04T00:29:07.621Z,79.70
2018-03-04T00:32:11.078Z,65.27
2018-03-04T00:35:14.512Z,73.30
2018-03-04T00:38:17.800Z,72.37
2018-03-04T00:41:21.243Z,76.20
2018-03-04T00:44:24.512Z,72.13
2018-03-04T00:47:27.785Z,71.90
2018-03-04T00:50:31.136Z,73.33
2018-03-04T00:53:34.414Z,80.67
2018-03-04T00:56:38.457Z,74.67
2018-03-04T00:59:41.742Z,69.90
2018-03-04T01:02:45.772Z,81.07
2018-03-04T01:05:49.413Z,76.63
2018-03-04T01:08:52.697Z,68.73
2018-03-04T01:11:55.968Z,77.27
2018-03-04T01:14:59.255Z,89.93
2018-03-04T01:18:02.965Z,76.57
2018-03-04T01:21:06.232Z,74.33
2018-03-04T01:24:09.553Z,68.47
2018-03-04T01:27:12.787Z,78.60
2018-03-04T01:30:16.046Z,79.00
2018-03-04T01:33:19.310Z,75.90
2018-03-04T01:36:22.578Z,76.90
2018-03-04T01:39:26.425Z,68.57
2018-03-04T01:42:30.776Z,72.57
2018-03-04T01:45:34.079Z,70.50
2018-03-04T01:48:38.096Z,77.57
2018-03-04T01:51:54.077Z,65.57
2018-03-04T01:54:58.109Z,72.57
2018-03-04T01:58:01.402Z,66.83
2018-03-04T02:01:04.673Z,70.20
2018-03-04T02:04:08.709Z,69.57
2018-03-04T02:07:12.736Z,71.83
2018-03-04T02:10:16.030Z,76.73
2018-03-04T02:13:19.308Z,76.53
2018-03-04T02:16:23.339Z,77.80
2018-03-04T02:19:26.805Z,79.83
2018-03-04T02:22:30.134Z,88.57
2018-03-04T02:25:33.411Z,85.03
2018-03-04T02:28:37.438Z,82.13
2018-03-04T02:31:41.465Z,79.20
2018-03-04T02:34:44.746Z,82.07
2018-03-04T02:37:48.869Z,79.47
2018-03-04T02:40:52.988Z,75.33
2018-03-04T02:43:56.254Z,76.93
2018-03-04T02:46:59.528Z,79.40
2018-03-04T02:50:03.269Z,70.83
2018-03-04T02:53:06.691Z,74.87
2018-03-04T02:56:09.978Z,79.70
2018-03-04T02:59:14.030Z,84.73
2018-03-04T03:02:17.302Z,76.53
2018-03-04T03:05:20.558Z,71.60
2018-03-04T03:08:23.930Z,84.37
2018-03-04T03:11:27.300Z,68.93
2018-03-04T03:14:30.564Z,78.77
2018-03-04T03:17:33.840Z,80.27
2018-03-04T03:20:37.105Z,76.90
2018-03-04T03:23:40.374Z,87.97
2018-03-04T03:26:44.406Z,71.57
2018-03-04T03:29:47.693Z,66.97
2018-03-04T03:32:51.724Z,75.97
2018-03-04T03:35:54.994Z,78.53
2018-03-04T03:38:59.046Z,77.33
2018-03-04T03:42:02.330Z,79.67
2018-03-04T03:45:05.589Z,77.43
2018-03-04T03:48:09.027Z,73.03
2018-03-04T03:51:12.298Z,72.10
2018-03-04T03:54:16.338Z,69.40
2018-03-04T03:57:19.624Z,75.00
2018-03-04T04:00:23.652Z,81.17
2018-03-04T04:03:26.923Z,74.10
2018-03-04T04:06:30.946Z,75.73
2018-03-04T04:09:34.238Z,77.13
2018-03-04T04:12:38.279Z,72.00
2018-03-04T04:15:41.558Z,72.07
2018-03-04T04:18:45.593Z,79.00
2018-03-04T04:21:49.064Z,79.43
2018-03-04T04:24:53.101Z,69.17
2018-03-04T04:27:56.386Z,77.47
2018-03-04T04:31:00.522Z,68.83
2018-03-04T04:34:03.806Z,64.47
2018-03-04T04:37:07.065Z,70.40
2018-03-04T04:40:10.404Z,73.97
2018-03-04T04:43:13.678Z,71.60
2018-03-04T04:46:17.707Z,59.33
2018-03-04T04:49:21.792Z,68.37
2018-03-04T04:52:25.061Z,70.47
2018-03-04T04:55:28.372Z,59.13
2018-03-04T04:58:31.634Z,64.93
2018-03-04T05:01:34.896Z,68.93
2018-03-04T05:04:38.936Z,58.03
2018-03-04T05:07:42.206Z,57.83
2018-03-04T05:10:45.944Z,63.40
2018-03-04T05:13:49.221Z,57.73
2018-03-04T05:16:53.362Z,62.00
2018-03-04T05:19:56.629Z,62.13
2018-03-04T05:23:01.556Z,61.23
2018-03-04T05:26:05.681Z,62.20
2018-03-04T05:29:09.720Z,65.47
2018-03-04T05:32:12.993Z,57.47
2018-03-04T05:35:17.025Z,61.20
2018-03-04T05:38:20.330Z,55.73
2018-03-04T05:41:23.625Z,53.60
2018-03-04T05:44:26.906Z,54.10
2018-03-04T05:47:30.938Z,64.83
2018-03-04T05:50:34.211Z,68.63
2018-03-04T05:53:37.485Z,69.43
2018-03-04T05:56:40.785Z,64.40
2018-03-04T05:59:44.139Z,64.40
2018-03-04T06:02:47.413Z,65.30
2018-03-04T06:05:50.702Z,60.23
2018-03-04T06:08:54.743Z,73.70
2018-03-04T06:11:58.136Z,66.87
2018-03-04T06:15:01.416Z,74.27
2018-03-04T06:18:05.461Z,65.73
2018-03-04T06:21:08.750Z,67.20
2018-03-04T06:24:12.017Z,68.87
2018-03-04T06:27:15.359Z,71.60
2018-03-04T06:30:18.816Z,60.07
2018-03-04T06:33:22.867Z,73.73
2018-03-04T06:36:26.156Z,61.20
2018-03-04T06:39:29.570Z,62.57
2018-03-04T06:42:32.881Z,60.83
2018-03-04T06:45:36.150Z,60.10
2018-03-04T06:48:39.421Z,59.57
2018-03-04T06:51:42.674Z,57.13
2018-03-04T06:54:45.962Z,57.50
2018-03-04T06:57:49.233Z,53.27
2018-03-04T07:00:52.527Z,53.10
2018-03-04T07:03:56.564Z,49.70
2018-03-04T07:06:59.832Z,46.90
2018-03-04T07:10:04.129Z,52.63
2018-03-04T07:13:08.281Z,48.03
2018-03-04T07:16:12.330Z,46.90
2018-03-04T07:19:15.596Z,51.10
2018-03-04T07:22:18.874Z,53.97
2018-03-04T07:25:22.906Z,47.10
2018-03-04T07:28:26.926Z,55.20
2018-03-04T07:31:30.197Z,47.87
2018-03-04T07:34:33.466Z,50.67
2018-03-04T07:37:36.763Z,50.77
2018-03-04T07:40:40.175Z,47.57
2018-03-04T07:43:43.444Z,38.17
2018-03-04T07:46:46.750Z,42.97
2018-03-04T07:49:50.026Z,42.20
2018-03-04T07:52:53.408Z,51.07
2018-03-04T07:55:56.677Z,48.90
2018-03-04T07:58:59.950Z,56.17
2018-03-04T08:02:04.132Z,50.43
2018-03-04T08:05:07.411Z,55.23
2018-03-04T08:08:11.445Z,47.17
2018-03-04T08:11:14.717Z,51.93
2018-03-04T08:14:18.758Z,56.93
2018-03-04T08:17:22.042Z,48.97
2018-03-04T08:20:25.306Z,55.97
2018-03-04T08:23:29.136Z,50.20
2018-03-04T08:26:50.901Z,55.10
2018-03-04T08:29:54.197Z,55.90
2018-03-04T08:32:57.463Z,55.03
2018-03-04T08:36:01.499Z,51.90
2018-03-04T08:39:04.774Z,55.03
2018-03-04T08:42:08.899Z,55.40
2018-03-04T08:45:13.017Z,48.97
2018-03-04T08:48:16.282Z,43.23
2018-03-04T08:51:20.089Z,58.80
2018-03-04T08:55:05.702Z,47.83
2018-03-04T08:58:09.752Z,53.87
2018-03-04T09:01:13.049Z,55.33
2018-03-04T09:04:16.327Z,56.33
2018-03-04T09:07:19.604Z,52.93
2018-03-04T09:10:22.972Z,48.17
2018-03-04T09:13:26.358Z,53.80
2018-03-04T09:16:29.633Z,54.67
2018-03-04T09:19:32.968Z,48.27
2018-03-04T09:22:36.413Z,43.47
2018-03-04T09:25:39.728Z,42.27
2018-03-04T09:28:43.193Z,48.23
2018-03-04T09:31:46.524Z,43.20
2018-03-04T09:34:50.095Z,41.63
2018-03-04T09:37:53.516Z,41.47
2018-03-04T09:40:57.570Z,45.73
2018-03-04T09:44:00.848Z,44.67
2018-03-04T09:47:04.158Z,41.53
2018-03-04T09:50:07.442Z,43.73
2018-03-04T09:53:10.697Z,40.10
2018-03-04T09:56:14.008Z,47.53
2018-03-04T09:59:18.205Z,43.77
2018-03-04T10:02:21.471Z,42.50
2018-03-04T10:05:24.743Z,45.57
2018-03-04T10:08:28.006Z,44.70
2018-03-04T10:11:31.275Z,49.30
2018-03-04T10:14:34.540Z,48.90
2018-03-04T10:17:37.848Z,43.77
2018-03-04T10:20:41.849Z,45.67
2018-03-04T10:23:45.118Z,42.77
2018-03-04T10:26:49.153Z,41.73
2018-03-04T10:29:52.410Z,41.77
2018-03-04T10:32:55.757Z,47.20
2018-03-04T10:35:59.121Z,38.17
2018-03-04T10:39:02.581Z,31.97
2018-03-04T10:42:05.871Z,34.37
2018-03-04T10:45:09.999Z,29.67
2018-03-04T10:48:13.347Z,34.53
2018-03-04T10:51:17.856Z,37.50
2018-03-04T10:54:21.197Z,35.23
2018-03-04T10:57:24.461Z,40.10
2018-03-04T11:00:27.746Z,33.97
2018-03-04T11:03:31.029Z,37.37
2018-03-04T11:06:39.814Z,40.90
2018-03-04T11:09:48.601Z,29.23
2018-03-04T11:12:52.069Z,22.03
2018-03-04T11:15:56.201Z,23.33
2018-03-04T11:19:00.229Z,24.17
2018-03-04T11:22:03.847Z,18.20
2018-03-04T11:25:07.118Z,20.00
2018-03-04T11:28:11.237Z,23.93
2018-03-04T11:31:14.530Z,29.37
2018-03-04T11:34:17.784Z,23.87
2018-03-04T11:37:21.069Z,21.37
2018-03-04T11:40:24.333Z,17.60
2018-03-04T11:43:27.605Z,19.87
2018-03-04T11:46:30.861Z,21.00
2018-03-04T11:49:34.130Z,17.47
2018-03-04T11:52:38.267Z,19.10
2018-03-04T11:55:41.525Z,13.43
2018-03-04T11:58:44.789Z,18.37
2018-03-04T12:01:48.165Z,15.50
2018-03-04T12:04:51.675Z,17.50
2018-03-04T12:07:54.939Z,18.47
2018-03-04T12:10:58.236Z,21.13
2018-03-04T12:14:01.521Z,20.80
2018-03-04T12:17:04.788Z,16.43
2018-03-04T12:20:08.062Z,18.77
2018-03-04T12:23:11.381Z,21.30
2018-03-04T12:26:14.703Z,16.17
2018-03-04T12:29:17.998Z,14.10
2018-03-04T12:32:21.297Z,12.13
2018-03-04T12:35:24.562Z,14.07
2018-03-04T12:38:27.871Z,21.27
2018-03-04T12:41:31.134Z,18.63
2018-03-04T12:44:35.289Z,16.23
2018-03-04T12:47:38.576Z,16.87
2018-03-04T12:50:41.842Z,19.43
2018-03-04T12:53:45.898Z,21.30
2018-03-04T12:56:49.164Z,17.63
2018-03-04T12:59:53.276Z,20.27
2018-03-04T13:02:57.300Z,16.23
2018-03-04T13:06:01.421Z,19.40
2018-03-04T13:09:05.548Z,16.57
2018-03-04T13:12:08.878Z,24.03
2018-03-04T13:15:12.132Z,24.10
2018-03-04T13:18:16.282Z,20.67
2018-03-04T13:21:19.653Z,25.47
2018-03-04T13:24:23.684Z,22.30
2018-03-04T13:27:26.982Z,23.50
2018-03-04T13:30:30.366Z,23.63
2018-03-04T13:33:33.621Z,28.33
2018-03-04T13:36:36.952Z,23.70
2018-03-04T13:39:40.226Z,26.00
2018-03-04T13:42:43.496Z,22.93
2018-03-04T13:45:46.793Z,21.80
2018-03-04T13:48:50.602Z,25.23
2018-03-04T13:51:53.870Z,24.30
2018-03-04T13:54:57.188Z,25.23
2018-03-04T13:58:00.539Z,26.70
2018-03-04T14:01:03.815Z,31.97
2018-03-04T14:04:07.885Z,24.50
2018-03-04T14:07:11.159Z,26.47
2018-03-04T14:10:14.430Z,24.42
2018-03-04T14:13:18.455Z,25.97
2018-03-04T14:16:21.780Z,20.97
2018-03-04T14:19:25.069Z,22.00
2018-03-04T14:22:29.349Z,23.83
2018-03-04T14:25:33.409Z,22.05
2018-03-04T14:28:36.711Z,22.60
2018-03-04T14:31:39.978Z,20.50
2018-03-04T14:34:44.048Z,21.73
2018-03-04T14:37:47.470Z,19.40
2018-03-04T14:40:51.522Z,17.57
2018-03-04T14:43:55.557Z,18.83
2018-03-04T14:46:59.894Z,15.55
2018-03-04T14:50:03.420Z,17.02
2018-03-04T14:53:07.503Z,15.00
2018-03-04T14:56:10.766Z,13.23
2018-03-04T14:59:14.103Z,14.98
2018-03-04T15:02:17.347Z,15.68
2018-03-04T15:05:20.637Z,18.07
2018-03-04T15:08:23.899Z,17.67
2018-03-04T15:11:27.185Z,17.43
2018-03-04T15:14:30.693Z,17.00
2018-03-04T15:17:33.957Z,17.48
2018-03-04T15:20:37.329Z,19.67
2018-03-04T15:23:41.353Z,21.60
2018-03-04T15:26:44.629Z,21.53
2018-03-04T15:29:48.685Z,28.70
2018-03-04T15:32:56.913Z,22.87
2018-03-04T15:36:00.197Z,19.67
2018-03-04T15:39:03.460Z,25.43
2018-03-04T15:42:07.507Z,31.43
2018-03-04T15:45:11.940Z,20.13
2018-03-04T15:48:15.197Z,28.77
2018-03-04T15:51:18.610Z,23.07
2018-03-04T15:54:22.658Z,21.93
2018-03-04T15:57:25.929Z,19.63
2018-03-04T16:00:31.482Z,19.84
2018-03-04T16:03:34.750Z,21.77
2018-03-04T16:06:38.025Z,19.13
2018-03-04T16:09:41.306Z,16.90
2018-03-04T16:12:44.578Z,19.17
2018-03-04T16:15:48.615Z,16.93
2018-03-04T16:18:51.886Z,21.67
2018-03-04T16:21:56.122Z,18.23
2018-03-04T16:25:01.391Z,18.03
2018-03-04T16:28:04.671Z,20.42
2018-03-04T16:31:08.712Z,21.30
2018-03-04T16:34:11.981Z,18.13
2018-03-04T16:37:16.166Z,17.63
2018-03-04T16:40:19.503Z,21.10
2018-03-04T16:43:22.823Z,20.33
2018-03-04T16:46:26.869Z,19.80
2018-03-04T16:49:31.200Z,19.85
2018-03-04T16:52:34.556Z,20.23
2018-03-04T16:55:37.950Z,22.33
2018-03-04T16:58:42.646Z,24.17
2018-03-04T17:01:46.681Z,24.00
2018-03-04T17:04:49.941Z,26.53
2018-03-04T17:07:53.211Z,25.37
2018-03-04T17:10:56.701Z,87.27
2018-03-04T17:14:00.026Z,214.37
2018-03-04T17:17:03.313Z,144.43
2018-03-04T17:20:06.649Z,67.70
2018-03-04T17:23:10.010Z,31.33
2018-03-04T17:26:13.597Z,35.23
2018-03-04T17:29:17.641Z,26.43
2018-03-04T17:32:20.982Z,27.47
2018-03-04T17:35:24.333Z,30.33
2018-03-04T17:38:27.618Z,25.57
2018-03-04T17:41:32.900Z,24.53
2018-03-04T17:44:36.209Z,28.63
2018-03-04T17:47:39.477Z,26.13
2018-03-04T17:50:42.756Z,27.57
2018-03-04T17:53:46.837Z,28.17
2018-03-04T17:56:50.277Z,28.83
2018-03-04T17:59:53.574Z,29.40
2018-03-04T18:02:56.887Z,29.87
2018-03-04T18:06:00.231Z,28.73
2018-03-04T18:09:03.503Z,38.53
2018-03-04T18:12:06.954Z,33.27
2018-03-04T18:15:10.987Z,31.10
2018-03-04T18:18:14.277Z,34.72
2018-03-04T18:21:18.309Z,38.73
2018-03-04T18:24:21.647Z,37.80
2018-03-04T18:27:24.930Z,33.87
2018-03-04T18:30:28.213Z,37.77
2018-03-04T18:33:32.246Z,38.63
2018-03-04T18:36:35.517Z,47.10
2018-03-04T18:39:38.793Z,41.12
2018-03-04T18:42:42.081Z,49.13
2018-03-04T18:45:45.457Z,48.00
2018-03-04T18:48:49.547Z,47.70
2018-03-04T18:51:52.886Z,51.03
2018-03-04T18:54:56.160Z,48.57
2018-03-04T18:58:00.293Z,36.47
2018-03-04T19:01:04.315Z,47.45
2018-03-04T19:04:08.026Z,43.30
2018-03-04T19:07:12.275Z,46.15
2018-03-04T19:10:15.653Z,47.43
2018-03-04T19:13:19.733Z,43.13
2018-03-04T19:16:23.803Z,47.00
2018-03-04T19:19:27.453Z,41.00
2018-03-04T19:22:30.745Z,43.87
2018-03-04T19:25:34.830Z,41.78
2018-03-04T19:28:38.165Z,40.40
2018-03-04T19:31:41.458Z,45.57
2018-03-04T19:34:44.734Z,40.30
2018-03-04T19:37:48.005Z,49.42
2018-03-04T19:40:51.302Z,47.43
2018-03-04T19:43:54.621Z,50.73
2018-03-04T19:46:57.885Z,46.50
2018-03-04T19:50:01.935Z,51.73
2018-03-04T19:53:06.710Z,47.05
2018-03-04T19:56:10.001Z,42.62
2018-03-04T19:59:13.279Z,45.17
2018-03-04T20:02:16.665Z,44.60
2018-03-04T20:05:20.724Z,43.93
2018-03-04T20:08:24.036Z,46.80
2018-03-04T20:11:27.396Z,46.53
2018-03-04T20:14:31.540Z,45.20
2018-03-04T20:17:36.813Z,44.03
2018-03-04T20:20:41.826Z,45.67
2018-03-04T20:23:45.133Z,40.57
2018-03-04T20:26:50.742Z,49.10
2018-03-04T20:29:54.353Z,49.67
2018-03-04T20:32:57.655Z,46.80
2018-03-04T20:36:00.937Z,52.37
2018-03-04T20:39:04.199Z,53.70
2018-03-04T20:42:07.489Z,57.07
2018-03-04T20:45:10.759Z,49.45
2018-03-04T20:48:14.030Z,54.50
2018-03-04T20:51:18.071Z,41.83
2018-03-04T20:54:21.513Z,51.00
2018-03-04T20:57:24.793Z,41.40
2018-03-04T21:00:28.232Z,48.97
2018-03-04T21:03:31.521Z,51.97
2018-03-04T21:06:34.874Z,45.57
2018-03-04T21:09:38.152Z,51.00
2018-03-04T21:12:42.190Z,43.97
2018-03-04T21:15:45.451Z,50.17
2018-03-04T21:18:49.491Z,44.20
2018-03-04T21:21:52.759Z,52.78
2018-03-04T21:24:56.090Z,47.35
2018-03-04T21:27:59.360Z,48.07
2018-03-04T21:31:02.620Z,58.17
2018-03-04T21:34:05.989Z,51.07
2018-03-04T21:37:09.261Z,56.23
2018-03-04T21:40:13.303Z,45.00
2018-03-04T21:43:16.612Z,46.77
2018-03-04T21:46:19.883Z,53.13
2018-03-04T21:49:23.152Z,54.07
2018-03-04T21:52:26.472Z,49.43
2018-03-04T21:55:29.718Z,47.75
2018-03-04T21:58:33.773Z,51.63
2018-03-04T22:01:37.057Z,61.50
2018-03-04T22:04:40.320Z,51.97
2018-03-04T22:07:44.388Z,52.58
2018-03-04T22:10:47.656Z,50.43
2018-03-04T22:13:50.932Z,51.00
2018-03-04T22:16:54.971Z,54.17
2018-03-04T22:19:58.242Z,61.00
2018-03-04T22:23:02.278Z,56.80
2018-03-04T22:26:05.537Z,55.10
2018-03-04T22:29:09.631Z,57.45
2018-03-04T22:32:12.899Z,53.43
2018-03-04T22:35:16.931Z,58.47
2018-03-04T22:38:20.204Z,53.07
2018-03-04T22:41:24.233Z,52.73
2018-03-04T22:44:27.518Z,53.37
2018-03-04T22:47:31.566Z,56.17
2018-03-04T22:50:34.826Z,53.00
2018-03-04T22:53:40.133Z,57.35
2018-03-04T22:56:43.399Z,53.75
2018-03-04T22:59:46.677Z,55.40
2018-03-04T23:02:50.099Z,53.90
2018-03-04T23:05:53.349Z,52.57
2018-03-04T23:08:56.620Z,54.50
2018-03-04T23:12:00.760Z,51.63
2018-03-04T23:15:04.038Z,47.30
2018-03-04T23:18:08.076Z,57.37
2018-03-04T23:21:11.343Z,56.83
2018-03-04T23:24:14.638Z,59.30
2018-03-04T23:27:17.910Z,61.08
2018-03-04T23:30:21.962Z,51.35
2018-03-04T23:33:25.637Z,51.23
2018-03-04T23:36:29.671Z,47.40
2018-03-04T23:39:32.960Z,63.27
2018-03-04T23:42:36.257Z,53.93
2018-03-04T23:45:39.537Z,47.47
2018-03-04T23:48:43.593Z,46.40
2018-03-04T23:51:46.856Z,54.70
2018-03-04T23:54:50.914Z,62.50
2018-03-04T23:57:54.189Z,53.70
